Time;durP1;ratioP1;P1;durP2;ratioP2;P2;SDS_P1;SDS_P2;PMS_P1;PMS_P2;Temp;Humidity;BMP_temperature;BMP_pressure;BME280_temperature;BME280_humidity;BME280_pressure;Samples;Min_cycle;Max_cycle;Signal;HPM_P1;HPM_P2
2023/12/14 00:01:13;;;;;;;10.70;6.00;;;7.50;99.90;;;;;;4999292;28;20030;-69
2023/12/14 00:03:44;;;;;;;10.82;6.45;;;7.50;99.90;;;;;;4998442;28;20034;-69
2023/12/14 00:06:10;;;;;;;14.05;6.00;;;7.50;99.90;;;;;;4999299;28;20023;-69
2023/12/14 00:08:36;;;;;;;9.45;5.25;;;7.40;99.90;;;;;;4998496;28;20026;-69
2023/12/14 00:11:09;;;;;;;9.63;5.55;;;7.40;99.90;;;;;;4998239;28;20029;-68
2023/12/14 00:13:34;;;;;;;12.43;6.35;;;7.40;99.90;;;;;;4999045;28;20045;-69
2023/12/14 00:16:00;;;;;;;10.65;4.93;;;7.50;99.90;;;;;;4998219;28;20018;-69
2023/12/14 00:18:26;;;;;;;12.02;5.65;;;7.40;99.90;;;;;;4998083;28;20026;-69
2023/12/14 00:20:53;;;;;;;9.48;5.03;;;7.40;99.90;;;;;;4998957;28;20029;-69
2023/12/14 00:23:19;;;;;;;11.88;5.80;;;7.50;99.90;;;;;;4998024;28;20026;-69
2023/12/14 00:25:45;;;;;;;9.65;4.97;;;7.60;99.90;;;;;;4999163;28;20034;-69
2023/12/14 00:28:10;;;;;;;9.98;4.65;;;7.70;99.90;;;;;;4999239;28;20030;-69
2023/12/14 00:30:36;;;;;;;9.48;5.40;;;7.60;99.90;;;;;;4997902;28;20029;-69
2023/12/14 00:33:02;;;;;;;12.43;5.43;;;7.60;99.90;;;;;;4999282;28;20023;-69
2023/12/14 00:35:27;;;;;;;9.25;5.25;;;7.70;99.90;;;;;;4998001;28;20030;-69
2023/12/14 00:37:53;;;;;;;9.45;4.60;;;7.80;99.90;;;;;;4998607;28;20030;-69
2023/12/14 00:40:18;;;;;;;10.43;5.30;;;7.80;99.90;;;;;;4998812;28;20030;-69
2023/12/14 00:42:44;;;;;;;9.13;4.88;;;7.90;99.90;;;;;;4997756;28;20037;-69
2023/12/14 00:45:10;;;;;;;8.70;4.82;;;7.70;99.90;;;;;;4997593;28;20034;-68
2023/12/14 00:47:35;;;;;;;9.02;5.28;;;7.70;99.90;;;;;;4998981;28;20054;-69
2023/12/14 00:50:01;;;;;;;10.52;5.00;;;7.70;99.90;;;;;;4997904;28;20031;-69
2023/12/14 00:52:26;;;;;;;9.80;4.88;;;7.70;99.90;;;;;;4998390;28;20018;-69
2023/12/14 00:54:52;;;;;;;11.55;5.18;;;7.70;99.90;;;;;;4998285;28;20025;-69
2023/12/14 00:57:17;;;;;;;8.98;4.80;;;7.60;99.90;;;;;;4998176;28;20027;-71
2023/12/14 00:59:43;;;;;;;8.63;5.15;;;7.60;99.90;;;;;;4998189;28;20081;-71
2023/12/14 01:02:08;;;;;;;8.40;5.15;;;7.40;99.90;;;;;;4998284;28;20026;-71
2023/12/14 01:04:34;;;;;;;9.27;4.88;;;7.40;99.90;;;;;;4997573;28;20030;-71
2023/12/14 01:06:59;;;;;;;10.18;5.03;;;7.40;99.90;;;;;;4998135;28;20026;-71
2023/12/14 01:09:25;;;;;;;10.38;5.00;;;7.50;99.90;;;;;;4998187;28;20033;-71
2023/12/14 01:11:50;;;;;;;15.45;6.05;;;7.40;99.90;;;;;;4997111;28;20034;-71
2023/12/14 01:14:16;;;;;;;10.18;5.43;;;7.30;99.90;;;;;;4997214;28;20049;-71
2023/12/14 01:16:41;;;;;;;13.35;5.47;;;7.20;99.90;;;;;;4997213;28;20034;-71
2023/12/14 01:19:07;;;;;;;8.85;4.55;;;7.20;99.90;;;;;;4997054;28;20120;-71
2023/12/14 01:21:33;;;;;;;10.73;5.22;;;7.20;99.90;;;;;;4997969;28;20030;-71
2023/12/14 01:24:00;;;;;;;10.35;5.85;;;7.30;99.90;;;;;;4997605;28;20030;-71
2023/12/14 01:26:26;;;;;;;11.40;5.35;;;7.40;99.90;;;;;;4998391;28;20022;-71
2023/12/14 01:28:52;;;;;;;12.15;5.40;;;7.40;99.90;;;;;;4997826;28;20030;-71
2023/12/14 01:31:17;;;;;;;10.88;5.15;;;7.40;99.90;;;;;;4996949;28;20125;-71
2023/12/14 01:33:43;;;;;;;11.10;5.80;;;7.40;99.90;;;;;;4996914;28;20090;-71
2023/12/14 01:36:08;;;;;;;8.77;5.47;;;7.40;99.90;;;;;;4996693;28;20090;-71
2023/12/14 01:38:34;;;;;;;8.55;4.55;;;7.40;99.90;;;;;;4997775;28;20041;-71
2023/12/14 01:41:00;;;;;;;9.38;5.07;;;7.40;99.90;;;;;;4998027;28;20034;-71
2023/12/14 01:43:26;;;;;;;9.70;4.68;;;7.50;99.90;;;;;;4998312;28;20018;-71
2023/12/14 01:45:51;;;;;;;9.50;4.93;;;7.60;99.90;;;;;;4996933;28;20139;-71
2023/12/14 01:48:17;;;;;;;8.98;5.07;;;7.60;99.90;;;;;;4996928;28;20030;-71
2023/12/14 01:50:42;;;;;;;9.85;4.93;;;7.40;99.90;;;;;;4997617;28;20023;-71
2023/12/14 01:53:08;;;;;;;9.82;5.68;;;7.30;99.90;;;;;;4996995;28;20023;-71
2023/12/14 01:55:33;;;;;;;9.77;5.20;;;7.30;99.90;;;;;;4997170;28;20027;-71
2023/12/14 01:58:00;;;;;;;9.20;5.03;;;7.30;99.90;;;;;;4997668;28;20030;-71
2023/12/14 02:00:51;;;;;;;10.63;5.65;;;7.40;99.90;;;;;;4996565;28;20030;-71
2023/12/14 02:03:17;;;;;;;10.02;5.53;;;7.30;99.90;;;;;;4997218;28;20039;-71
2023/12/14 02:05:43;;;;;;;16.05;5.93;;;7.20;99.90;;;;;;4996594;28;20096;-71
2023/12/14 02:08:08;;;;;;;12.00;5.90;;;7.10;99.90;;;;;;4997366;28;20039;-71
2023/12/14 02:10:34;;;;;;;11.43;5.30;;;7.10;99.90;;;;;;4997517;28;20105;-71
2023/12/14 02:13:02;;;;;;;12.25;5.25;;;7.10;99.90;;;;;;4997772;28;20018;-71
2023/12/14 02:15:28;;;;;;;10.75;5.00;;;7.20;99.90;;;;;;4996770;28;20023;-71
2023/12/14 02:17:53;;;;;;;10.65;5.18;;;7.20;99.90;;;;;;4997426;28;20065;-71
2023/12/14 02:20:19;;;;;;;10.10;5.30;;;7.40;99.90;;;;;;4997285;28;20035;-71
2023/12/14 02:22:52;;;;;;;10.68;5.20;;;7.50;99.90;;;;;;4996347;28;20066;-71
2023/12/14 02:25:18;;;;;;;10.07;4.70;;;7.60;99.90;;;;;;4996812;28;20129;-71
2023/12/14 02:27:44;;;;;;;9.05;5.25;;;7.60;99.90;;;;;;4997191;28;20065;-71
2023/12/14 02:30:10;;;;;;;10.93;5.70;;;7.50;99.90;;;;;;4997513;28;20022;-71
2023/12/14 02:32:37;;;;;;;9.70;5.15;;;7.50;99.90;;;;;;4997397;28;20115;-71
2023/12/14 02:35:03;;;;;;;10.73;5.65;;;7.60;99.90;;;;;;4998205;28;20029;-71
2023/12/14 02:37:28;;;;;;;8.68;4.90;;;7.70;99.90;;;;;;5000193;28;20031;-71
2023/12/14 02:39:54;;;;;;;10.27;5.57;;;7.50;99.90;;;;;;5001482;28;20027;-71
2023/12/14 02:42:19;;;;;;;10.20;5.15;;;7.40;99.90;;;;;;5001420;28;20030;-71
2023/12/14 02:44:46;;;;;;;10.43;4.90;;;7.30;99.90;;;;;;5001203;28;20061;-71
2023/12/14 02:47:12;;;;;;;16.25;6.18;;;7.50;99.90;;;;;;4999963;28;20064;-71
2023/12/14 02:49:37;;;;;;;11.02;5.50;;;7.50;99.90;;;;;;5000983;28;20078;-71
2023/12/14 02:52:03;;;;;;;10.43;5.93;;;7.50;99.90;;;;;;5000029;28;20114;-71
2023/12/14 02:54:29;;;;;;;14.02;6.18;;;7.50;99.90;;;;;;4999701;28;20030;-71
2023/12/14 02:56:55;;;;;;;9.07;5.25;;;7.40;99.90;;;;;;5000662;28;20117;-71
2023/12/14 02:59:20;;;;;;;12.02;5.25;;;7.40;99.90;;;;;;4999534;28;20030;-71
2023/12/14 03:01:46;;;;;;;16.52;6.28;;;7.30;99.90;;;;;;5000446;28;20022;-71
2023/12/14 03:04:11;;;;;;;9.88;5.15;;;7.40;99.90;;;;;;5000342;28;20026;-71
2023/12/14 03:06:37;;;;;;;12.45;5.45;;;7.30;99.90;;;;;;5000289;28;20026;-71
2023/12/14 03:09:03;;;;;;;11.50;5.60;;;7.40;99.90;;;;;;4999718;28;20033;-71
2023/12/14 03:11:28;;;;;;;8.95;4.65;;;7.50;99.90;;;;;;4999352;28;20022;-71
2023/12/14 03:13:54;;;;;;;8.27;4.32;;;7.60;99.90;;;;;;4999415;28;20026;-72
2023/12/14 03:16:19;;;;;;;7.32;4.32;;;7.60;99.90;;;;;;5000398;28;20023;-71
2023/12/14 03:18:45;;;;;;;6.93;4.03;;;7.60;99.90;;;;;;5000180;28;20022;-71
2023/12/14 03:21:11;;;;;;;10.30;4.32;;;7.80;99.90;;;;;;4999481;28;20073;-71
2023/12/14 03:23:36;;;;;;;4.93;3.05;;;7.90;99.90;;;;;;4999208;28;20117;-72
2023/12/14 03:26:02;;;;;;;9.98;4.68;;;7.80;99.90;;;;;;5000481;28;20034;-71
2023/12/14 03:28:28;;;;;;;13.45;4.07;;;7.70;99.90;;;;;;5000255;28;20077;-71
2023/12/14 03:30:54;;;;;;;7.00;3.83;;;7.70;99.90;;;;;;4999927;28;20022;-71
2023/12/14 03:33:19;;;;;;;6.25;3.45;;;7.60;99.90;;;;;;4999530;28;20018;-71
2023/12/14 03:35:46;;;;;;;6.57;3.55;;;7.70;99.90;;;;;;5000414;28;20073;-71
2023/12/14 03:38:13;;;;;;;7.50;3.55;;;7.60;99.90;;;;;;4999134;28;20029;-71
2023/12/14 03:40:38;;;;;;;6.53;3.60;;;7.70;99.90;;;;;;4998816;28;20041;-71
2023/12/14 03:43:04;;;;;;;8.25;4.03;;;7.70;99.90;;;;;;4998821;28;20034;-71
2023/12/14 03:45:30;;;;;;;8.73;3.58;;;7.70;99.90;;;;;;4998763;28;20034;-71
2023/12/14 03:47:56;;;;;;;6.28;3.47;;;7.70;99.90;;;;;;4998703;28;20027;-71
2023/12/14 03:50:22;;;;;;;12.13;3.75;;;7.60;99.90;;;;;;4999653;28;20014;-71
2023/12/14 03:52:47;;;;;;;8.07;3.63;;;7.50;99.90;;;;;;4999656;28;20014;-71
2023/12/14 03:55:15;;;;;;;8.90;3.60;;;7.50;99.90;;;;;;4999390;28;20023;-71
2023/12/14 03:57:41;;;;;;;10.63;4.05;;;7.60;99.90;;;;;;4999460;28;20049;-71
2023/12/14 04:00:10;;;;;;;8.73;4.07;;;7.60;99.90;;;;;;4999586;28;20035;-71
2023/12/14 04:02:35;;;;;;;7.13;4.50;;;7.50;99.90;;;;;;4998968;28;20073;-71
2023/12/14 04:05:01;;;;;;;6.75;3.70;;;7.50;99.90;;;;;;4998459;28;20026;-71
2023/12/14 04:07:26;;;;;;;8.82;3.97;;;7.50;99.90;;;;;;4998203;28;20037;-71
2023/12/14 04:09:52;;;;;;;9.25;4.63;;;7.50;99.90;;;;;;4998427;28;20116;-71
2023/12/14 04:12:17;;;;;;;10.77;4.20;;;7.30;99.90;;;;;;4998618;28;20018;-71
2023/12/14 04:14:44;;;;;;;6.38;3.67;;;7.30;99.90;;;;;;4999149;28;20034;-71
2023/12/14 04:17:10;;;;;;;7.40;4.70;;;7.30;99.90;;;;;;4999041;28;20097;-71
2023/12/14 04:19:38;;;;;;;11.63;4.45;;;7.20;99.90;;;;;;4998120;28;20090;-71
2023/12/14 04:22:04;;;;;;;9.55;4.55;;;7.10;99.90;;;;;;4999300;28;20084;-71
2023/12/14 04:24:30;;;;;;;7.85;4.10;;;7.10;99.90;;;;;;4998890;28;20078;-71
2023/12/14 04:26:56;;;;;;;7.80;3.67;;;7.20;99.90;;;;;;4998294;28;20022;-71
2023/12/14 04:29:21;;;;;;;10.75;4.60;;;7.20;99.90;;;;;;4998474;28;20031;-71
2023/12/14 04:31:47;;;;;;;7.63;3.88;;;7.20;99.90;;;;;;4997902;28;20085;-71
2023/12/14 04:34:15;;;;;;;8.93;4.57;;;7.30;99.90;;;;;;4998152;28;20022;-71
2023/12/14 04:36:44;;;;;;;11.13;5.05;;;7.30;99.90;;;;;;4998653;28;20026;-71
2023/12/14 04:39:10;;;;;;;8.18;4.13;;;7.30;99.90;;;;;;4997799;28;20026;-71
2023/12/14 04:41:35;;;;;;;6.57;4.20;;;7.30;99.90;;;;;;4998680;28;20086;-71
2023/12/14 04:44:01;;;;;;;8.30;4.15;;;7.30;99.90;;;;;;4997977;28;20026;-71
2023/12/14 04:46:27;;;;;;;4.93;3.42;;;7.40;99.90;;;;;;4998584;28;20108;-71
2023/12/14 04:48:52;;;;;;;7.75;4.50;;;7.40;99.90;;;;;;4998989;28;20050;-71
2023/12/14 04:51:18;;;;;;;7.60;4.35;;;7.30;99.90;;;;;;4998585;28;20037;-71
2023/12/14 04:53:43;;;;;;;8.90;4.00;;;7.40;99.90;;;;;;4997869;28;20050;-71
2023/12/14 04:56:12;;;;;;;8.82;4.80;;;7.40;99.90;;;;;;4997916;28;20030;-71
2023/12/14 04:58:41;;;;;;;7.15;4.05;;;7.30;99.90;;;;;;4997402;28;20053;-71
2023/12/14 05:01:07;;;;;;;7.55;4.05;;;7.30;99.90;;;;;;4998289;28;20027;-71
2023/12/14 05:03:34;;;;;;;7.57;4.15;;;7.20;99.90;;;;;;4997324;28;20038;-71
2023/12/14 05:06:00;;;;;;;8.32;4.63;;;7.10;99.90;;;;;;4997312;28;20027;-71
2023/12/14 05:08:26;;;;;;;8.30;4.25;;;7.10;99.90;;;;;;4997122;28;20030;-71
2023/12/14 05:10:51;;;;;;;8.88;4.57;;;7.10;99.90;;;;;;4998324;28;20022;-71
2023/12/14 05:13:17;;;;;;;12.13;5.88;;;7.20;99.90;;;;;;4997773;28;20026;-71
2023/12/14 05:15:42;;;;;;;9.63;4.80;;;7.10;99.90;;;;;;4997259;28;20050;-71
2023/12/14 05:18:08;;;;;;;7.97;4.40;;;7.10;99.90;;;;;;4997173;28;20026;-71
2023/12/14 05:20:34;;;;;;;8.52;4.30;;;7.00;99.90;;;;;;4997136;28;20022;-71
2023/12/14 05:22:59;;;;;;;10.27;4.63;;;7.10;99.90;;;;;;4997619;28;20038;-71
2023/12/14 05:25:25;;;;;;;7.88;4.63;;;7.10;99.90;;;;;;4997291;28;20036;-71
2023/12/14 05:27:51;;;;;;;10.40;5.32;;;7.10;99.90;;;;;;4998039;28;20110;-71
2023/12/14 05:30:16;;;;;;;9.38;4.95;;;7.10;99.90;;;;;;4997354;28;20019;-71
2023/12/14 05:32:43;;;;;;;10.10;5.00;;;7.10;99.90;;;;;;4996925;28;20105;-71
2023/12/14 05:35:09;;;;;;;11.82;5.20;;;7.20;99.90;;;;;;4997703;28;20058;-71
2023/12/14 05:37:35;;;;;;;11.55;5.45;;;7.20;99.90;;;;;;4998179;28;20033;-71
2023/12/14 05:40:01;;;;;;;13.57;5.57;;;7.10;99.90;;;;;;4996777;28;20022;-71
2023/12/14 05:42:27;;;;;;;9.70;5.28;;;7.10;99.90;;;;;;4997019;28;20022;-71
2023/12/14 05:44:52;;;;;;;12.73;5.88;;;7.10;99.90;;;;;;4997800;28;20097;-71
2023/12/14 05:47:18;;;;;;;12.90;5.60;;;7.10;99.90;;;;;;5037025;23;20184;-68
2023/12/14 05:49:44;;;;;;;13.02;5.07;;;7.10;99.90;;;;;;5017406;28;20044;-69
2023/12/14 05:52:10;;;;;;;16.88;5.20;;;7.10;99.90;;;;;;5017835;28;20116;-69
2023/12/14 05:54:36;;;;;;;13.82;6.05;;;7.10;99.90;;;;;;5016286;28;20026;-68
2023/12/14 05:57:02;;;;;;;10.05;5.22;;;7.00;99.90;;;;;;5017055;28;20049;-69
2023/12/14 05:59:27;;;;;;;12.27;6.15;;;7.10;99.90;;;;;;5017156;28;20022;-68
2023/12/14 06:01:57;;;;;;;12.93;6.68;;;7.00;99.90;;;;;;5016629;28;20030;-68
2023/12/14 06:04:23;;;;;;;12.82;6.20;;;7.00;99.90;;;;;;5017056;28;20038;-68
2023/12/14 06:06:49;;;;;;;16.38;6.53;;;7.00;99.90;;;;;;5016099;28;20089;-68
2023/12/14 06:09:14;;;;;;;16.48;7.57;;;7.00;99.90;;;;;;5016767;28;20022;-69
2023/12/14 06:11:40;;;;;;;14.98;6.18;;;7.00;99.90;;;;;;5020203;28;20022;-68
2023/12/14 06:14:05;;;;;;;17.13;8.40;;;7.10;99.90;;;;;;5021002;28;20075;-68
2023/12/14 06:16:31;;;;;;;15.02;7.35;;;7.00;99.90;;;;;;5020850;28;20022;-69
2023/12/14 06:18:56;;;;;;;19.23;8.73;;;7.10;99.90;;;;;;5020228;28;20037;-69
2023/12/14 06:21:26;;;;;;;24.55;10.30;;;7.10;99.90;;;;;;5020048;28;20025;-69
2023/12/14 06:23:51;;;;;;;18.08;8.23;;;7.10;99.90;;;;;;5020883;28;20026;-69
2023/12/14 06:26:17;;;;;;;22.27;9.35;;;7.10;99.90;;;;;;5019933;28;20029;-69
2023/12/14 06:28:42;;;;;;;19.20;8.52;;;7.20;99.90;;;;;;5020359;28;20284;-69
2023/12/14 06:31:14;;;;;;;15.50;7.85;;;7.20;99.90;;;;;;5019660;28;20113;-68
2023/12/14 06:33:39;;;;;;;25.85;9.60;;;7.10;99.90;;;;;;5020073;28;20032;-69
2023/12/14 06:36:06;;;;;;;19.98;9.00;;;7.00;99.90;;;;;;5020233;28;20030;-68
2023/12/14 06:38:32;;;;;;;29.23;9.70;;;7.00;99.90;;;;;;5020533;28;20032;-68
2023/12/14 06:40:57;;;;;;;22.13;8.63;;;6.90;99.90;;;;;;5019827;28;20022;-68
2023/12/14 06:43:23;;;;;;;19.58;8.85;;;6.90;99.90;;;;;;5019550;28;20037;-68
2023/12/14 06:45:48;;;;;;;20.20;8.70;;;6.90;99.90;;;;;;5020362;28;20033;-68
2023/12/14 06:48:14;;;;;;;19.50;8.48;;;6.90;99.90;;;;;;5019397;28;20075;-69
2023/12/14 06:50:39;;;;;;;21.92;8.23;;;6.90;99.90;;;;;;5019812;28;20022;-69
2023/12/14 06:53:05;;;;;;;20.10;7.57;;;6.90;99.90;;;;;;5019379;28;20018;-69
2023/12/14 06:55:30;;;;;;;17.63;6.72;;;7.10;99.90;;;;;;5020448;28;20041;-69
2023/12/14 06:57:56;;;;;;;19.25;8.13;;;7.10;99.90;;;;;;5020248;28;20137;-69
2023/12/14 07:00:21;;;;;;;15.73;7.30;;;7.10;99.90;;;;;;5019626;28;20116;-69
2023/12/14 07:02:47;;;;;;;28.30;9.13;;;7.10;99.90;;;;;;5019127;28;20032;-69
2023/12/14 07:05:13;;;;;;;18.83;8.55;;;7.10;99.90;;;;;;5020321;28;20048;-69
2023/12/14 07:07:38;;;;;;;22.02;8.68;;;7.10;99.90;;;;;;5019885;28;20145;-69
2023/12/14 07:10:04;;;;;;;17.05;8.73;;;7.10;99.90;;;;;;5019990;28;20028;-69
2023/12/14 07:12:30;;;;;;;21.55;8.20;;;7.00;99.90;;;;;;5018945;28;20087;-69
2023/12/14 07:14:55;;;;;;;22.58;9.82;;;7.10;99.90;;;;;;5019006;28;20050;-69
2023/12/14 07:17:21;;;;;;;20.33;9.68;;;6.90;99.90;;;;;;5019234;28;20029;-69
2023/12/14 07:19:46;;;;;;;23.13;9.57;;;6.80;99.90;;;;;;5019262;28;20022;-69
2023/12/14 07:22:12;;;;;;;26.92;10.45;;;6.80;99.90;;;;;;5019674;28;20025;-69
2023/12/14 07:24:37;;;;;;;22.75;9.95;;;6.70;99.90;;;;;;5018793;28;20108;-69
2023/12/14 07:27:03;;;;;;;27.20;10.15;;;6.80;99.90;;;;;;5018774;28;20057;-69
2023/12/14 07:29:29;;;;;;;26.63;10.77;;;6.90;99.90;;;;;;5019908;28;20032;-68
2023/12/14 07:31:54;;;;;;;21.67;10.48;;;7.00;99.90;;;;;;5019439;28;20029;-67
2023/12/14 07:34:20;;;;;;;23.23;9.82;;;6.90;99.90;;;;;;5020049;28;20037;-66
2023/12/14 07:36:46;;;;;;;26.92;10.57;;;7.00;99.90;;;;;;5019713;28;20024;-67
2023/12/14 07:39:12;;;;;;;24.05;10.43;;;7.00;99.90;;;;;;5019328;28;20025;-66
2023/12/14 07:41:37;;;;;;;29.40;10.88;;;7.00;99.90;;;;;;5018615;28;20033;-66
2023/12/14 07:44:04;;;;;;;33.55;13.10;;;7.00;99.90;;;;;;5018635;28;20124;-66
2023/12/14 07:46:30;;;;;;;36.00;13.82;;;7.00;99.90;;;;;;5018775;28;20033;-66
2023/12/14 07:48:55;;;;;;;28.08;12.70;;;7.00;99.90;;;;;;5018285;28;20026;-66
2023/12/14 07:51:21;;;;;;;32.70;12.20;;;7.10;99.90;;;;;;5018249;28;20081;-66
2023/12/14 07:53:46;;;;;;;28.30;11.95;;;7.00;99.90;;;;;;5019166;28;20026;-66
2023/12/14 07:56:12;;;;;;;39.70;14.32;;;6.80;99.90;;;;;;5018650;28;20088;-66
2023/12/14 07:58:38;;;;;;;43.88;14.50;;;6.80;99.90;;;;;;5018935;28;20032;-66
2023/12/14 08:01:03;;;;;;;37.28;15.18;;;6.80;99.90;;;;;;5018584;28;20030;-66
2023/12/14 08:03:29;;;;;;;38.05;14.73;;;6.80;99.90;;;;;;5018364;28;20021;-66
2023/12/14 08:05:54;;;;;;;46.20;15.07;;;6.80;99.90;;;;;;5018002;28;20030;-66
2023/12/14 08:08:20;;;;;;;39.35;13.70;;;6.80;99.90;;;;;;5017862;28;20030;-66
2023/12/14 08:10:45;;;;;;;38.55;12.75;;;6.80;99.90;;;;;;5018178;28;20053;-66
2023/12/14 08:13:11;;;;;;;33.03;12.68;;;6.80;99.90;;;;;;5018024;28;20029;-66
2023/12/14 08:15:36;;;;;;;44.13;15.85;;;6.70;99.90;;;;;;5018489;28;20022;-66
2023/12/14 08:18:02;;;;;;;50.08;17.38;;;6.70;99.90;;;;;;5017723;28;20029;-66
2023/12/14 08:20:27;;;;;;;47.03;17.20;;;6.70;99.90;;;;;;5017883;28;20056;-66
2023/12/14 08:22:53;;;;;;;41.38;14.90;;;6.60;99.90;;;;;;5017791;28;20062;-66
2023/12/14 08:25:19;;;;;;;34.47;12.50;;;6.60;99.90;;;;;;5017592;28;20029;-66
2023/12/14 08:27:44;;;;;;;40.10;14.88;;;6.50;99.90;;;;;;5017715;28;20068;-66
2023/12/14 08:30:11;;;;;;;42.22;15.20;;;6.50;99.90;;;;;;5018401;28;20080;-66
2023/12/14 08:32:36;;;;;;;52.03;15.95;;;6.60;99.90;;;;;;5017267;28;20026;-66
2023/12/14 08:35:02;;;;;;;39.67;13.90;;;6.70;99.90;;;;;;5017480;28;20022;-66
2023/12/14 08:37:27;;;;;;;39.50;13.90;;;6.80;99.90;;;;;;5017699;28;20069;-67
2023/12/14 08:39:53;;;;;;;42.20;15.02;;;6.80;99.90;;;;;;5017329;28;20022;-66
2023/12/14 08:42:18;;;;;;;38.80;14.98;;;6.80;99.90;;;;;;5017624;28;20033;-66
2023/12/14 08:44:44;;;;;;;47.97;15.27;;;6.80;99.90;;;;;;5017450;28;20022;-66
2023/12/14 08:47:10;;;;;;;51.22;15.20;;;6.70;99.90;;;;;;5017289;28;20030;-66
2023/12/14 08:49:35;;;;;;;47.30;15.52;;;6.70;99.90;;;;;;5017530;28;20030;-66
2023/12/14 08:52:01;;;;;;;53.72;17.02;;;6.70;99.90;;;;;;5017996;28;20022;-66
2023/12/14 08:54:27;;;;;;;43.60;14.38;;;6.80;99.90;;;;;;5017205;28;20030;-66
2023/12/14 08:56:52;;;;;;;53.22;19.40;;;6.80;99.90;;;;;;5017314;28;20080;-66
2023/12/14 08:59:20;;;;;;;38.85;15.90;;;6.90;99.90;;;;;;5017490;28;20022;-66
2023/12/14 09:01:45;;;;;;;47.28;16.73;;;6.90;99.90;;;;;;5016808;28;20025;-66
2023/12/14 09:04:11;;;;;;;43.47;14.90;;;6.90;99.90;;;;;;5017398;28;20025;-66
2023/12/14 09:06:36;;;;;;;37.30;13.95;;;6.90;99.90;;;;;;5016962;28;20025;-66
2023/12/14 09:09:03;;;;;;;39.25;13.82;;;6.80;99.90;;;;;;5017185;28;20077;-66
2023/12/14 09:11:29;;;;;;;39.17;13.60;;;6.90;99.90;;;;;;5017169;28;20029;-66
2023/12/14 09:13:55;;;;;;;45.00;15.18;;;6.80;99.90;;;;;;5017124;28;20022;-66
2023/12/14 09:16:20;;;;;;;45.22;13.43;;;6.80;99.90;;;;;;5017241;28;20045;-66
2023/12/14 09:18:46;;;;;;;38.42;14.13;;;6.80;99.90;;;;;;5017536;28;20022;-66
2023/12/14 09:21:12;;;;;;;31.25;12.10;;;6.80;99.90;;;;;;5017020;28;20049;-67
2023/12/14 09:23:40;;;;;;;29.27;11.85;;;6.80;99.90;;;;;;5016819;28;20022;-66
2023/12/14 09:26:06;;;;;;;26.10;10.88;;;6.80;99.90;;;;;;5017265;28;20053;-66
2023/12/14 09:28:31;;;;;;;32.13;11.23;;;6.90;99.90;;;;;;5017386;28;20057;-67
2023/12/14 09:30:57;;;;;;;27.95;10.60;;;6.90;99.90;;;;;;5017323;28;20025;-66
2023/12/14 09:33:23;;;;;;;26.75;9.80;;;7.00;99.90;;;;;;5017383;28;20022;-67
2023/12/14 09:35:48;;;;;;;18.95;9.57;;;7.00;99.90;;;;;;5016524;28;20088;-66
2023/12/14 09:38:17;;;;;;;27.48;11.10;;;7.00;99.90;;;;;;5016615;28;20030;-66
2023/12/14 09:40:44;;;;;;;26.13;10.35;;;7.10;99.90;;;;;;5016789;28;20032;-67
2023/12/14 09:43:10;;;;;;;28.48;10.73;;;7.10;99.90;;;;;;5016950;28;20068;-66
2023/12/14 09:45:37;;;;;;;25.38;9.98;;;7.20;99.90;;;;;;5016346;28;20057;-67
2023/12/14 09:48:03;;;;;;;28.73;9.20;;;7.20;99.90;;;;;;5017163;28;20034;-67
2023/12/14 09:50:30;;;;;;;21.70;9.98;;;7.30;99.90;;;;;;5016677;28;20039;-66
2023/12/14 09:52:56;;;;;;;18.35;9.20;;;7.30;99.90;;;;;;5016700;28;20022;-66
2023/12/14 09:55:21;;;;;;;22.35;9.48;;;7.30;99.90;;;;;;5016830;28;20022;-66
2023/12/14 09:57:47;;;;;;;24.35;10.00;;;7.40;99.90;;;;;;5017107;28;20037;-66
2023/12/14 10:00:31;;;;;;;24.00;10.10;;;7.40;99.90;;;;;;5016658;28;20022;-66
2023/12/14 10:02:57;;;;;;;19.65;8.68;;;7.50;99.90;;;;;;5016172;28;20029;-67
2023/12/14 10:05:23;;;;;;;23.50;8.98;;;7.50;99.90;;;;;;5016944;28;20021;-68
2023/12/14 10:07:48;;;;;;;21.35;9.70;;;7.60;99.90;;;;;;5017321;28;20041;-67
2023/12/14 10:10:14;;;;;;;23.00;8.07;;;7.60;99.90;;;;;;5016230;28;20026;-68
2023/12/14 10:12:54;;;;;;;21.00;7.95;;;7.60;99.90;;;;;;5016770;28;20026;-67
2023/12/14 10:15:19;;;;;;;16.67;7.93;;;7.60;99.90;;;;;;5016377;28;20026;-67
2023/12/14 10:17:50;;;;;;;14.68;7.60;;;7.60;99.90;;;;;;5017009;28;20033;-67
2023/12/14 10:20:22;;;;;;;14.18;7.15;;;7.70;99.90;;;;;;5017054;28;20026;-67
2023/12/14 10:22:49;;;;;;;21.75;6.70;;;7.70;99.90;;;;;;5016115;28;20022;-67
2023/12/14 10:25:14;;;;;;;16.20;7.05;;;7.80;99.90;;;;;;5016469;28;20033;-67
2023/12/14 10:27:40;;;;;;;14.60;6.55;;;7.80;99.90;;;;;;5016249;28;20030;-68
2023/12/14 10:30:08;;;;;;;11.57;5.93;;;7.80;99.90;;;;;;5016420;28;20022;-68
2023/12/14 10:32:34;;;;;;;12.85;6.00;;;7.90;99.90;;;;;;5015877;28;20099;-67
2023/12/14 10:35:00;;;;;;;16.35;5.43;;;7.90;99.90;;;;;;5015948;28;20018;-68
2023/12/14 10:37:26;;;;;;;10.43;4.78;;;8.00;99.90;;;;;;5016104;28;20029;-68
2023/12/14 10:39:53;;;;;;;8.45;3.95;;;8.00;99.90;;;;;;5016265;28;20029;-67
2023/12/14 10:42:21;;;;;;;7.57;3.65;;;8.00;99.90;;;;;;5015937;28;20022;-66
2023/12/14 10:44:51;;;;;;;6.82;3.75;;;8.10;99.90;;;;;;5016788;28;20072;-66
2023/12/14 10:47:18;;;;;;;3.85;2.28;;;8.10;99.90;;;;;;5015741;28;20034;-66
2023/12/14 10:49:48;;;;;;;5.07;2.53;;;8.10;99.90;;;;;;5016438;28;20022;-66
2023/12/14 10:52:14;;;;;;;7.22;2.15;;;8.10;99.90;;;;;;5016089;28;20053;-66
2023/12/14 10:54:41;;;;;;;6.70;1.90;;;8.20;99.90;;;;;;5016133;28;20058;-66
2023/12/14 10:57:08;;;;;;;6.05;2.13;;;8.20;99.90;;;;;;5019324;28;20108;-66
2023/12/14 10:59:34;;;;;;;2.50;1.30;;;8.30;99.90;;;;;;5019302;28;20029;-66
2023/12/14 11:02:09;;;;;;;2.38;1.05;;;8.30;99.90;;;;;;5020141;28;20117;-66
2023/12/14 11:04:56;;;;;;;5.47;1.00;;;8.30;99.90;;;;;;5020066;28;20036;-66
2023/12/14 11:07:49;;;;;;;1.20;0.82;;;8.30;99.90;;;;;;5019949;28;20033;-66
2023/12/14 11:10:15;;;;;;;1.25;0.80;;;8.30;99.90;;;;;;5019547;28;20029;-66
2023/12/14 11:13:12;;;;;;;3.33;1.00;;;8.30;99.90;;;;;;5019072;28;20030;-66
2023/12/14 11:15:39;;;;;;;2.08;0.95;;;8.40;99.90;;;;;;4963355;28;20065;-66
2023/12/14 11:18:08;;;;;;;1.50;0.88;;;8.40;99.90;;;;;;4962971;28;20030;-66
2023/12/14 11:20:45;;;;;;;0.75;0.70;;;8.40;99.90;;;;;;4963115;28;20031;-66
2023/12/14 11:23:19;;;;;;;1.45;0.65;;;8.40;99.90;;;;;;4963025;28;20023;-66
2023/12/14 11:25:49;;;;;;;1.70;0.80;;;8.40;99.90;;;;;;4962930;28;20038;-66
2023/12/14 11:28:15;;;;;;;2.10;0.90;;;8.40;99.90;;;;;;4963097;28;20037;-66
2023/12/14 11:30:43;;;;;;;1.55;0.80;;;8.40;99.90;;;;;;4962923;28;20027;-66
2023/12/14 11:33:08;;;;;;;5.28;1.40;;;8.50;99.90;;;;;;4963336;28;20039;-66
2023/12/14 11:35:34;;;;;;;4.32;1.20;;;8.50;99.90;;;;;;4962661;28;20025;-66
2023/12/14 11:38:02;;;;;;;5.35;1.45;;;8.70;99.90;;;;;;4962776;28;20023;-66
2023/12/14 11:40:29;;;;;;;4.53;1.60;;;8.60;99.90;;;;;;4962760;28;20027;-66
2023/12/14 11:43:12;;;;;;;6.65;1.63;;;8.60;99.90;;;;;;4962525;28;20030;-67
2023/12/14 11:45:40;;;;;;;4.47;3.20;;;8.60;99.90;;;;;;4989071;22;20054;-64
2023/12/14 11:48:10;;;;;;;4.05;0.90;;;8.60;99.90;;;;;;5018789;28;20034;-64
2023/12/14 11:50:36;;;;;;;1.73;0.93;;;8.50;99.90;;;;;;5019612;28;20010;-64
2023/12/14 11:53:03;;;;;;;1.65;0.85;;;8.50;99.90;;;;;;5018193;28;20064;-64
2023/12/14 11:55:30;;;;;;;1.23;0.60;;;8.60;99.90;;;;;;5019154;28;20037;-64
2023/12/14 11:57:56;;;;;;;1.98;1.10;;;8.50;99.90;;;;;;4999858;28;20022;-64
2023/12/14 12:00:28;;;;;;;3.13;1.20;;;8.60;99.90;;;;;;4998685;28;20026;-64
2023/12/14 12:03:20;;;;;;;1.45;0.95;;;8.60;99.90;;;;;;4998539;28;20037;-64
2023/12/14 12:05:48;;;;;;;1.48;1.00;;;8.60;99.90;;;;;;4998743;28;20026;-64
2023/12/14 12:08:15;;;;;;;1.50;0.90;;;8.60;99.90;;;;;;4998401;28;20070;-64
2023/12/14 12:10:42;;;;;;;1.30;0.75;;;8.60;99.90;;;;;;4999243;28;20022;-64
2023/12/14 12:13:12;;;;;;;3.28;1.05;;;8.70;99.90;;;;;;4998374;28;20026;-64
2023/12/14 12:15:38;;;;;;;1.92;0.93;;;8.70;99.90;;;;;;4999184;28;20110;-64
2023/12/14 12:18:06;;;;;;;1.15;0.73;;;8.70;99.90;;;;;;4999219;28;20061;-64
2023/12/14 12:20:32;;;;;;;2.25;0.85;;;8.80;99.90;;;;;;4999254;28;20068;-64
2023/12/14 12:22:58;;;;;;;2.47;1.20;;;8.90;99.90;;;;;;4998276;28;20030;-64
2023/12/14 12:25:24;;;;;;;2.75;1.50;;;8.90;99.90;;;;;;4998909;28;20037;-64
2023/12/14 12:27:49;;;;;;;1.27;1.05;;;8.80;99.90;;;;;;4998350;28;20049;-64
2023/12/14 12:30:15;;;;;;;0.95;0.88;;;8.70;99.90;;;;;;4998259;28;20023;-64
2023/12/14 12:32:41;;;;;;;4.03;1.20;;;8.70;99.90;;;;;;4998697;28;20022;-64
2023/12/14 12:35:07;;;;;;;6.03;1.30;;;8.70;99.90;;;;;;4998807;28;20092;-64
2023/12/14 12:37:33;;;;;;;1.35;1.00;;;8.60;99.90;;;;;;4998683;28;20026;-64
2023/12/14 12:39:59;;;;;;;1.48;0.90;;;8.60;99.90;;;;;;4998671;28;20049;-69
2023/12/14 12:42:25;;;;;;;1.42;0.88;;;8.60;99.90;;;;;;4997655;28;20030;-69
2023/12/14 12:44:51;;;;;;;1.58;1.00;;;8.70;99.90;;;;;;4998641;28;20019;-69
2023/12/14 12:47:16;;;;;;;3.08;1.10;;;8.70;99.90;;;;;;4998590;28;20030;-69